createdAt,value
2019-05-01T00:00:59.200Z,5.10
2019-05-01T00:03:34.017Z,5.30
2019-05-01T00:06:10.886Z,5.10
2019-05-01T00:08:42.530Z,4.93
2019-05-01T00:11:14.429Z,5.07
2019-05-01T00:13:46.332Z,5.33
2019-05-01T00:16:18.548Z,4.67
2019-05-01T00:18:50.175Z,5.20
2019-05-01T00:21:21.911Z,5.30
2019-05-01T00:23:54.508Z,4.77
2019-05-01T00:26:26.032Z,4.90
2019-05-01T00:28:58.737Z,5.00
2019-05-01T00:31:30.459Z,5.27
2019-05-01T00:34:02.300Z,4.87
2019-05-01T00:36:35.306Z,4.77
2019-05-01T00:39:09.645Z,5.20
2019-05-01T00:41:41.841Z,6.20
2019-05-01T00:44:13.564Z,5.17
2019-05-01T00:46:45.392Z,4.97
2019-05-01T00:49:17.120Z,4.80
2019-05-01T00:51:48.850Z,5.33
2019-05-01T00:54:20.690Z,5.60
2019-05-01T00:57:00.186Z,5.73
2019-05-01T00:59:36.162Z,4.80
2019-05-01T01:02:12.381Z,5.30
2019-05-01T01:04:43.915Z,4.53
2019-05-01T01:07:15.737Z,5.07
2019-05-01T01:09:47.463Z,5.43
2019-05-01T01:12:19.949Z,5.10
2019-05-01T01:14:51.573Z,4.93
2019-05-01T01:17:23.374Z,5.40
2019-05-01T01:19:55.103Z,5.03
2019-05-01T01:22:29.988Z,5.37
2019-05-01T01:25:02.355Z,5.63
2019-05-01T01:27:35.293Z,5.73
2019-05-01T01:30:08.924Z,5.20
2019-05-01T01:32:40.815Z,4.83
2019-05-01T01:35:12.685Z,4.80
2019-05-01T01:37:44.210Z,5.37
2019-05-01T01:40:16.001Z,4.40
2019-05-01T01:42:49.721Z,4.90
2019-05-01T01:45:22.990Z,4.50
2019-05-01T01:48:12.043Z,5.10
2019-05-01T01:50:46.160Z,4.60
2019-05-01T01:53:20.666Z,4.90
2019-05-01T01:55:52.551Z,5.23
2019-05-01T01:58:25.915Z,5.57
2019-05-01T02:01:11.390Z,5.40
2019-05-01T02:03:44.822Z,5.30
2019-05-01T02:06:16.682Z,4.47
2019-05-01T02:08:56.212Z,5.13
2019-05-01T02:11:23.469Z,4.30
2019-05-01T02:13:58.512Z,5.60
2019-05-01T02:16:30.340Z,5.07
2019-05-01T02:19:02.071Z,5.40
2019-05-01T02:21:33.803Z,5.33
2019-05-01T02:24:06.008Z,5.13
2019-05-01T02:26:40.380Z,4.93
2019-05-01T02:29:17.085Z,5.43
2019-05-01T02:31:52.438Z,4.97
2019-05-01T02:34:26.815Z,4.90
2019-05-01T02:37:02.675Z,5.27
2019-05-01T02:39:36.437Z,5.30
2019-05-01T02:42:10.138Z,5.13
2019-05-01T02:44:50.631Z,5.80
2019-05-01T02:47:26.669Z,4.63
2019-05-01T02:50:09.167Z,6.00
2019-05-01T02:52:43.531Z,5.50
2019-05-01T02:55:23.077Z,5.00
2019-05-01T02:57:55.644Z,5.20
2019-05-01T03:00:27.712Z,5.07
2019-05-01T03:03:00.692Z,5.30
2019-05-01T03:05:32.414Z,5.00
2019-05-01T03:08:04.377Z,5.27
2019-05-01T03:10:36.543Z,5.60
2019-05-01T03:13:08.912Z,5.17
2019-05-01T03:15:40.984Z,5.47
2019-05-01T03:18:14.566Z,5.40
2019-05-01T03:20:50.013Z,5.80
2019-05-01T03:23:39.686Z,5.33
2019-05-01T03:26:12.019Z,5.10
2019-05-01T03:28:44.079Z,7.20
2019-05-01T03:31:16.936Z,7.00
2019-05-01T03:33:49.122Z,6.13
2019-05-01T03:36:20.739Z,5.90
2019-05-01T03:38:53.035Z,5.70
2019-05-01T03:41:24.827Z,5.97
2019-05-01T03:43:57.764Z,5.87
2019-05-01T03:46:29.562Z,6.27
2019-05-01T03:49:01.751Z,6.33
2019-05-01T03:51:33.852Z,5.87
2019-05-01T03:54:07.271Z,6.00
2019-05-01T03:56:39.369Z,6.20
2019-05-01T03:59:10.992Z,5.83
2019-05-01T04:01:56.647Z,6.33
2019-05-01T04:04:31.855Z,6.17
2019-05-01T04:07:03.913Z,6.07
2019-05-01T04:09:37.165Z,6.10
2019-05-01T04:12:09.159Z,6.40
2019-05-01T04:14:41.525Z,6.70
2019-05-01T04:17:15.172Z,6.07
2019-05-01T04:19:47.173Z,6.67
2019-05-01T04:22:19.068Z,6.57
2019-05-01T04:24:51.641Z,6.77
2019-05-01T04:27:25.351Z,6.23
2019-05-01T04:30:04.976Z,5.80
2019-05-01T04:32:52.209Z,5.37
2019-05-01T04:35:25.503Z,4.80
2019-05-01T04:37:57.841Z,4.60
2019-05-01T04:40:29.635Z,4.57
2019-05-01T04:43:01.255Z,4.97
2019-05-01T04:45:33.618Z,5.23
2019-05-01T04:48:05.675Z,5.00
2019-05-01T04:50:37.573Z,4.93
2019-05-01T04:53:09.372Z,4.73
2019-05-01T04:55:41.015Z,4.63
2019-05-01T04:58:13.079Z,4.60
2019-05-01T05:00:44.956Z,5.17
2019-05-01T05:03:18.231Z,4.80
2019-05-01T05:05:49.945Z,5.10
2019-05-01T05:08:21.575Z,4.93
2019-05-01T05:10:55.589Z,4.83
2019-05-01T05:13:29.326Z,5.40
2019-05-01T05:16:08.656Z,4.90
2019-05-01T05:18:40.299Z,5.33
2019-05-01T05:21:13.739Z,5.00
2019-05-01T05:23:46.302Z,5.40
2019-05-01T05:26:18.212Z,5.17
2019-05-01T05:28:51.695Z,5.30
2019-05-01T05:31:26.859Z,5.00
2019-05-01T05:34:01.303Z,4.93
2019-05-01T05:36:36.389Z,6.93
2019-05-01T05:39:26.080Z,5.63
2019-05-01T05:41:59.057Z,5.80
2019-05-01T05:44:30.786Z,5.40
2019-05-01T05:47:02.882Z,5.33
2019-05-01T05:49:34.891Z,4.97
2019-05-01T05:52:10.669Z,5.03
2019-05-01T05:54:45.571Z,4.87
2019-05-01T05:57:30.194Z,4.80
2019-05-01T06:00:20.191Z,5.70
2019-05-01T06:02:55.653Z,4.87
2019-05-01T06:05:34.975Z,4.70
2019-05-01T06:08:11.307Z,5.00
2019-05-01T06:10:53.550Z,4.37
2019-05-01T06:13:44.667Z,4.77
2019-05-01T06:16:25.169Z,5.03
2019-05-01T06:19:09.635Z,5.00
2019-05-01T06:21:43.584Z,5.27
2019-05-01T06:24:20.295Z,5.93
2019-05-01T06:26:52.093Z,5.33
2019-05-01T06:29:24.084Z,4.73
2019-05-01T06:31:58.815Z,4.90
2019-05-01T06:34:29.822Z,5.07
2019-05-01T06:37:03.637Z,4.73
2019-05-01T06:39:35.681Z,5.50
2019-05-01T06:42:09.754Z,4.43
2019-05-01T06:45:01.588Z,4.60
2019-05-01T06:47:38.334Z,4.90
2019-05-01T06:50:17.454Z,4.83
2019-05-01T06:52:50.149Z,5.03
2019-05-01T11:45:17.486Z,8.20
2019-05-01T11:47:49.322Z,7.60
2019-05-01T11:50:22.208Z,7.83
2019-05-01T11:53:02.653Z,7.83
2019-05-01T11:55:35.985Z,9.13
2019-05-01T11:58:10.912Z,8.83
2019-05-01T12:00:45.094Z,9.67
2019-05-01T12:03:16.793Z,12.10
2019-05-01T12:05:48.566Z,10.53
2019-05-01T12:08:24.184Z,52.07
2019-05-01T12:10:56.076Z,18.33
2019-05-01T12:13:27.809Z,11.53
2019-05-01T12:16:07.094Z,30.20
2019-05-01T12:18:38.663Z,32.20
2019-05-01T12:21:10.425Z,64.33
2019-05-01T12:23:42.322Z,112.10
2019-05-01T12:26:15.452Z,38.13
2019-05-01T12:28:47.198Z,31.40
2019-05-01T12:31:18.959Z,145.00
2019-05-01T12:33:50.721Z,61.80
2019-05-01T12:36:35.152Z,35.77
2019-05-01T12:49:51.665Z,42.67
2019-05-01T12:52:46.464Z,14.03
2019-05-01T12:55:35.075Z,12.83
2019-05-01T12:58:18.219Z,12.90
2019-05-01T13:00:53.177Z,12.93
2019-05-01T13:03:25.568Z,11.87
2019-05-01T13:05:59.672Z,128.47
2019-05-01T13:08:32.079Z,26.60
2019-05-01T13:11:05.198Z,30.03
2019-05-01T13:13:40.508Z,20.30
2019-05-01T13:16:23.546Z,22.37
2019-05-01T13:18:58.376Z,31.67
2019-05-01T13:21:30.346Z,25.73
2019-05-01T13:24:04.143Z,21.20
2019-05-01T13:26:40.551Z,18.07
2019-05-01T13:29:19.209Z,38.70
2019-05-01T13:31:58.076Z,35.20
2019-05-01T13:34:32.427Z,20.10
2019-05-01T13:37:06.360Z,17.30
2019-05-01T13:39:39.981Z,17.43
2019-05-01T13:42:27.225Z,19.13
2019-05-01T13:45:00.928Z,20.07
2019-05-01T13:47:36.322Z,21.27
2019-05-01T13:50:12.248Z,20.40
2019-05-01T13:52:46.845Z,24.80
2019-05-01T13:55:18.786Z,22.53
2019-05-01T13:57:50.541Z,23.77
2019-05-01T14:00:23.700Z,28.13
2019-05-01T14:02:55.745Z,30.10
2019-05-01T14:05:27.785Z,28.37
2019-05-01T14:07:59.614Z,25.70
2019-05-01T14:10:34.126Z,27.00
2019-05-01T14:13:09.494Z,27.10
2019-05-01T14:15:41.152Z,27.33
2019-05-01T14:18:17.972Z,25.57
2019-05-01T14:20:53.905Z,24.77
2019-05-01T14:23:44.810Z,27.47
2019-05-01T14:26:18.366Z,26.47
2019-05-01T14:28:51.472Z,26.83
2019-05-01T14:31:23.106Z,26.73
2019-05-01T14:34:01.068Z,29.83
2019-05-01T14:36:28.487Z,30.53
2019-05-01T14:39:00.722Z,29.83
2019-05-01T14:41:34.467Z,29.10
2019-05-01T14:44:06.754Z,29.67
2019-05-01T14:46:38.311Z,23.53
2019-05-01T14:49:10.164Z,26.80
2019-05-01T14:51:41.993Z,26.33
2019-05-01T14:54:13.848Z,27.27
2019-05-01T14:56:45.590Z,28.93
2019-05-01T14:59:17.358Z,27.37
2019-05-01T15:01:49.113Z,26.77
2019-05-01T15:04:20.818Z,25.33
2019-05-01T15:06:52.576Z,26.37
2019-05-01T15:09:24.449Z,26.93
2019-05-01T15:11:56.096Z,23.57
2019-05-01T15:14:29.638Z,23.23
2019-05-01T15:17:09.932Z,22.53
2019-05-01T15:19:46.467Z,23.77
2019-05-01T15:22:21.814Z,22.80
2019-05-01T15:24:53.536Z,21.40
2019-05-01T15:27:25.373Z,19.50
2019-05-01T15:30:07.636Z,19.67
2019-05-01T15:32:43.712Z,19.70
2019-05-01T15:35:17.241Z,19.30
2019-05-01T15:37:56.584Z,19.50
2019-05-01T15:40:31.736Z,51.10
2019-05-01T15:43:17.134Z,18.00
2019-05-01T15:45:59.348Z,20.33
2019-05-01T15:48:37.913Z,21.43
2019-05-01T15:51:12.362Z,18.93
2019-05-01T15:53:44.393Z,22.10
2019-05-01T15:56:16.210Z,21.77
2019-05-01T15:58:50.024Z,22.10
2019-05-01T16:01:23.084Z,20.17
2019-05-01T16:03:59.713Z,25.73
2019-05-01T16:06:31.755Z,23.80
2019-05-01T16:09:07.560Z,20.90
2019-05-01T16:11:57.482Z,19.37
2019-05-01T16:14:32.386Z,21.50
2019-05-01T16:17:05.082Z,21.83
2019-05-01T16:19:37.305Z,16.77
2019-05-01T16:22:09.259Z,14.53
2019-05-01T16:24:49.541Z,15.90
2019-05-01T16:27:22.611Z,13.30
2019-05-01T16:30:06.035Z,13.33
2019-05-01T16:32:40.805Z,14.53
2019-05-01T16:35:13.003Z,14.17
2019-05-01T16:37:50.113Z,13.53
2019-05-01T16:40:35.551Z,13.47
2019-05-01T16:43:09.660Z,14.50
2019-05-01T16:45:41.429Z,14.50
2019-05-01T16:48:13.074Z,15.43
2019-05-01T16:50:45.911Z,13.90
2019-05-01T16:53:18.115Z,14.57
2019-05-01T16:55:49.990Z,17.97
2019-05-01T16:58:23.225Z,21.17
2019-05-01T17:01:03.055Z,16.40
2019-05-01T17:03:52.911Z,17.83
2019-05-01T17:06:45.253Z,17.77
2019-05-01T17:09:36.838Z,14.73
2019-05-01T17:12:12.887Z,25.83
2019-05-01T17:14:46.174Z,15.87
2019-05-01T17:17:20.363Z,19.90
2019-05-01T17:19:56.740Z,20.53
2019-05-01T17:22:29.626Z,19.87
2019-05-01T17:25:02.142Z,54.50
2019-05-01T17:27:35.082Z,30.57
2019-05-01T17:30:10.458Z,35.07
2019-05-01T17:32:44.273Z,23.77
2019-05-01T17:35:15.985Z,32.53
2019-05-01T17:37:47.640Z,50.17
2019-05-01T17:40:21.141Z,24.50
2019-05-01T17:42:54.570Z,26.20
2019-05-01T17:45:29.786Z,28.80
2019-05-01T17:48:03.380Z,31.80
2019-05-01T17:50:37.884Z,33.37
2019-05-01T17:53:09.758Z,35.93
2019-05-01T17:55:41.918Z,37.40
2019-05-01T17:58:14.284Z,35.53
2019-05-01T18:01:05.016Z,38.07
2019-05-01T18:03:46.066Z,35.80
2019-05-01T18:06:22.963Z,43.17
2019-05-01T18:09:03.247Z,40.63
2019-05-01T18:11:31.311Z,62.50
2019-05-01T18:14:05.577Z,53.70
2019-05-01T18:16:37.113Z,75.10
2019-05-01T18:19:10.753Z,57.97
2019-05-01T18:21:46.803Z,55.67
2019-05-01T18:24:39.026Z,63.57
2019-05-01T18:27:27.719Z,58.37
2019-05-01T18:30:06.244Z,36.67
2019-05-01T18:32:46.466Z,35.77
2019-05-01T18:35:16.084Z,37.50
2019-05-01T18:37:51.639Z,35.07
2019-05-01T18:40:28.059Z,34.67
2019-05-01T18:43:00.417Z,33.47
2019-05-01T18:45:45.451Z,35.67
2019-05-01T18:48:18.439Z,35.27
2019-05-01T18:50:54.967Z,34.90
2019-05-01T18:53:28.469Z,31.57
2019-05-01T18:56:05.578Z,31.53
2019-05-01T18:58:36.838Z,30.03
2019-05-01T19:01:09.194Z,28.57
2019-05-01T19:03:44.083Z,29.73
2019-05-01T19:06:17.490Z,34.53
2019-05-01T19:08:50.668Z,30.90
2019-05-01T19:11:22.989Z,28.53
2019-05-01T19:14:00.400Z,29.30
2019-05-01T19:16:39.948Z,26.40
2019-05-01T19:19:13.786Z,24.37
2019-05-01T19:21:48.513Z,25.53
2019-05-01T19:24:26.485Z,20.20
2019-05-01T19:26:59.995Z,23.37
2019-05-01T19:29:33.728Z,22.13
2019-05-01T19:32:08.302Z,26.93
2019-05-01T19:34:40.995Z,21.80
2019-05-01T19:37:16.508Z,21.27
2019-05-01T19:39:53.679Z,19.83
2019-05-01T19:42:24.512Z,21.07
2019-05-01T19:44:57.731Z,19.13
2019-05-01T19:47:31.877Z,17.40
2019-05-01T19:50:09.708Z,17.70
2019-05-01T19:52:43.176Z,17.13
2019-05-01T19:55:14.998Z,18.40
2019-05-01T19:57:46.859Z,18.90
2019-05-01T20:00:24.996Z,21.60
2019-05-01T20:02:59.068Z,23.63
2019-05-01T20:05:32.504Z,22.57
2019-05-01T20:08:04.484Z,22.50
2019-05-01T20:10:37.450Z,24.10
2019-05-01T20:13:13.318Z,25.40
2019-05-01T20:15:46.765Z,21.17
2019-05-01T20:18:19.526Z,19.47
2019-05-01T20:20:52.841Z,19.27
2019-05-01T20:23:31.420Z,15.77
2019-05-01T20:26:03.431Z,13.53
2019-05-01T20:28:37.398Z,13.70
2019-05-01T20:31:17.927Z,14.60
2019-05-01T20:33:55.417Z,13.17
2019-05-01T20:36:29.470Z,12.00
2019-05-01T20:39:07.421Z,12.67
2019-05-01T20:41:41.953Z,12.23
2019-05-01T20:44:18.717Z,11.30
2019-05-01T20:46:47.280Z,11.70
2019-05-01T20:49:20.161Z,11.10
2019-05-01T20:51:52.028Z,11.60
2019-05-01T20:54:27.607Z,11.93
2019-05-01T20:57:07.206Z,10.77
2019-05-01T20:59:42.080Z,10.10
2019-05-01T21:02:15.009Z,10.40
2019-05-01T21:04:54.560Z,9.90
2019-05-01T21:07:29.520Z,10.33
2019-05-01T21:10:05.531Z,9.60
2019-05-01T21:12:37.353Z,9.37
2019-05-01T21:15:09.577Z,11.13
2019-05-01T21:17:44.188Z,10.43
2019-05-01T21:20:14.800Z,10.53
2019-05-01T21:22:46.548Z,9.90
2019-05-01T21:25:18.284Z,10.03
2019-05-01T21:27:50.044Z,10.17
2019-05-01T21:30:23.733Z,10.13
2019-05-01T21:32:59.069Z,10.57
2019-05-01T21:35:29.615Z,9.30
2019-05-01T21:38:02.379Z,9.40
2019-05-01T21:40:40.633Z,9.23
2019-05-01T21:43:08.388Z,9.63
2019-05-01T21:45:40.034Z,10.17
2019-05-01T21:48:13.412Z,10.43
2019-05-01T21:50:45.143Z,10.00
2019-05-01T21:53:16.809Z,10.17
2019-05-01T21:55:48.676Z,9.97
2019-05-01T21:58:21.113Z,9.47
2019-05-01T22:00:55.111Z,9.93
2019-05-01T22:03:27.879Z,10.40
2019-05-01T22:05:59.513Z,11.10
2019-05-01T22:08:34.429Z,11.97
2019-05-01T22:11:05.383Z,13.40
2019-05-01T22:13:43.298Z,12.03
2019-05-01T22:16:24.165Z,10.97
2019-05-01T22:19:00.717Z,11.23
2019-05-01T22:21:43.111Z,10.17
2019-05-01T22:24:32.295Z,10.73
2019-05-01T22:27:05.776Z,10.67
2019-05-01T22:29:42.082Z,11.40
2019-05-01T22:32:31.859Z,10.70
2019-05-01T22:35:08.748Z,11.27
2019-05-01T22:37:41.290Z,11.60
2019-05-01T22:40:15.471Z,11.10
2019-05-01T22:42:47.262Z,14.60
2019-05-01T22:45:24.100Z,11.33
2019-05-01T22:47:55.947Z,11.10
2019-05-01T22:50:28.624Z,10.40
2019-05-01T22:53:00.385Z,11.73
2019-05-01T22:55:33.366Z,9.77
2019-05-01T22:58:05.181Z,11.33
2019-05-01T23:00:41.496Z,12.50
2019-05-01T23:03:15.527Z,15.77
2019-05-01T23:05:47.281Z,16.93
2019-05-01T23:08:18.931Z,16.83
2019-05-01T23:10:50.746Z,14.00
2019-05-01T23:13:23.659Z,11.47
2019-05-01T23:15:56.177Z,14.00
2019-05-01T23:18:29.947Z,11.80
2019-05-01T23:21:01.690Z,11.47
2019-05-01T23:23:33.506Z,16.50
2019-05-01T23:26:05.250Z,11.70
2019-05-01T23:28:39.742Z,11.97
2019-05-01T23:31:10.528Z,12.47
2019-05-01T23:33:45.697Z,12.77
2019-05-01T23:36:23.298Z,13.03
2019-05-01T23:38:49.239Z,11.70
2019-05-01T23:41:24.847Z,12.00
2019-05-01T23:43:58.154Z,11.77
2019-05-01T23:46:29.832Z,13.07
2019-05-01T23:49:01.203Z,14.47
2019-05-01T23:51:34.478Z,14.00
2019-05-01T23:54:06.213Z,15.47
2019-05-01T23:56:37.947Z,11.27
2019-05-01T23:59:09.777Z,11.10
